createdAt,value
2022-11-17T00:00:43.763Z,93.20
2022-11-17T00:03:15.608Z,93.20
2022-11-17T00:05:42.833Z,93.20
2022-11-17T00:08:10.225Z,93.20
2022-11-17T00:10:39.206Z,93.20
2022-11-17T00:13:29.355Z,93.20
2022-11-17T00:15:56.814Z,93.30
2022-11-17T00:18:42.212Z,93.30
2022-11-17T00:21:19.333Z,93.20
2022-11-17T00:23:51.630Z,93.30
2022-11-17T00:26:23.129Z,93.30
2022-11-17T00:28:54.859Z,93.30
2022-11-17T00:31:41.120Z,93.30
2022-11-17T00:34:12.967Z,93.30
2022-11-17T00:36:53.096Z,93.30
2022-11-17T00:39:24.173Z,93.30
2022-11-17T00:41:53.494Z,93.30
2022-11-17T00:44:20.514Z,93.40
2022-11-17T00:46:48.379Z,93.40
2022-11-17T00:49:17.764Z,93.30
2022-11-17T00:51:47.154Z,93.40
2022-11-17T00:54:16.591Z,93.40
2022-11-17T00:56:43.328Z,93.40
2022-11-17T00:59:10.863Z,93.40
2022-11-17T01:01:38.148Z,93.40
2022-11-17T01:04:05.437Z,93.40
2022-11-17T01:06:44.545Z,93.40
2022-11-17T01:09:17.898Z,93.20
2022-11-17T01:11:45.306Z,93.20
2022-11-17T01:14:19.300Z,93.20
2022-11-17T01:16:46.350Z,93.10
2022-11-17T01:19:14.892Z,93.20
2022-11-17T01:21:42.080Z,93.20
2022-11-17T01:24:11.651Z,93.10
2022-11-17T01:26:39.800Z,93.00
2022-11-17T01:29:07.854Z,93.00
2022-11-17T01:31:38.116Z,93.00
2022-11-17T01:34:05.819Z,93.00
2022-11-17T01:36:55.030Z,93.10
2022-11-17T01:39:25.990Z,93.10
2022-11-17T01:41:54.393Z,93.10
2022-11-17T01:44:49.042Z,93.10
2022-11-17T01:47:35.048Z,93.10
2022-11-17T01:50:12.681Z,93.10
2022-11-17T01:52:41.149Z,93.10
2022-11-17T01:55:12.521Z,93.10
2022-11-17T01:57:45.320Z,93.40
2022-11-17T02:00:12.651Z,93.20
2022-11-17T02:02:42.156Z,93.20
2022-11-17T02:05:22.119Z,93.20
2022-11-17T02:07:52.612Z,93.20
2022-11-17T02:10:19.383Z,93.20
2022-11-17T02:12:46.315Z,93.30
2022-11-17T02:15:13.477Z,93.30
2022-11-17T02:17:42.447Z,93.30
2022-11-17T02:20:17.767Z,93.30
2022-11-17T02:23:11.775Z,93.30
2022-11-17T02:25:50.624Z,93.30
2022-11-17T02:28:51.207Z,93.40
2022-11-17T02:31:26.877Z,93.40
2022-11-17T02:34:37.833Z,93.30
2022-11-17T02:37:28.789Z,93.40
2022-11-17T02:40:31.819Z,93.40
2022-11-17T02:43:24.296Z,93.40
2022-11-17T02:46:10.633Z,93.50
2022-11-17T02:48:40.848Z,93.50
2022-11-17T02:51:14.410Z,93.50
2022-11-17T02:53:41.588Z,93.40
2022-11-17T02:56:10.667Z,93.40
2022-11-17T02:58:39.724Z,93.20
2022-11-17T03:01:30.555Z,92.90
2022-11-17T03:04:22.025Z,92.80
2022-11-17T03:07:04.653Z,92.60
2022-11-17T03:09:38.362Z,92.40
2022-11-17T03:12:31.094Z,92.20
2022-11-17T03:15:10.278Z,92.00
2022-11-17T03:18:06.952Z,92.00
2022-11-17T03:20:39.003Z,91.90
2022-11-17T03:23:18.028Z,92.00
2022-11-17T03:25:51.482Z,92.00
2022-11-17T03:28:21.630Z,91.90
2022-11-17T03:30:51.080Z,91.90
2022-11-17T03:33:23.613Z,91.80
2022-11-17T03:36:01.261Z,91.90
2022-11-17T03:38:32.937Z,91.90
2022-11-17T03:41:04.780Z,91.90
2022-11-17T03:43:34.532Z,92.00
2022-11-17T03:46:13.087Z,92.00
2022-11-17T03:48:57.393Z,92.00
2022-11-17T03:51:28.968Z,91.90
2022-11-17T03:53:58.016Z,91.80
2022-11-17T03:57:02.024Z,91.90
2022-11-17T03:59:55.432Z,91.90
2022-11-17T04:02:26.685Z,91.90
2022-11-17T04:05:05.577Z,91.90
2022-11-17T04:07:45.051Z,91.90
2022-11-17T04:10:17.311Z,91.80
2022-11-17T04:13:03.578Z,91.80
2022-11-17T04:15:49.379Z,91.70
2022-11-17T04:18:16.211Z,91.60
2022-11-17T04:20:43.371Z,91.50
2022-11-17T04:23:15.009Z,91.50
2022-11-17T04:26:07.974Z,91.50
2022-11-17T04:28:40.493Z,91.40
2022-11-17T04:31:14.734Z,91.40
2022-11-17T04:33:47.054Z,91.30
2022-11-17T04:36:17.519Z,91.40
2022-11-17T04:38:46.694Z,91.40
2022-11-17T04:41:34.184Z,91.40
2022-11-17T04:44:02.388Z,91.50
2022-11-17T04:46:40.288Z,91.60
2022-11-17T04:49:08.923Z,91.70
2022-11-17T04:51:39.372Z,91.80
2022-11-17T04:54:08.227Z,91.90
2022-11-17T04:56:35.623Z,92.00
2022-11-17T04:59:05.705Z,92.00
2022-11-17T05:01:35.264Z,92.10
2022-11-17T05:04:04.718Z,92.20
2022-11-17T05:06:34.973Z,92.20
2022-11-17T05:09:08.392Z,92.10
2022-11-17T05:11:53.733Z,92.00
2022-11-17T05:14:22.547Z,91.90
2022-11-17T05:17:11.904Z,91.90
2022-11-17T05:19:46.775Z,91.80
2022-11-17T05:22:52.132Z,91.80
2022-11-17T05:25:21.345Z,91.90
2022-11-17T05:27:48.227Z,91.90
2022-11-17T05:30:15.294Z,91.90
2022-11-17T05:32:42.011Z,91.90
2022-11-17T05:35:12.158Z,92.00
2022-11-17T05:37:39.584Z,92.00
2022-11-17T05:40:09.770Z,91.90
2022-11-17T05:42:39.780Z,91.80
2022-11-17T05:45:10.271Z,91.80
2022-11-17T05:47:37.121Z,91.90
2022-11-17T05:50:04.150Z,92.00
2022-11-17T05:52:30.952Z,92.00
2022-11-17T05:54:57.665Z,92.10
2022-11-17T05:57:29.142Z,92.10
2022-11-17T06:00:12.044Z,92.10
2022-11-17T06:02:49.175Z,92.30
2022-11-17T06:05:20.281Z,92.00
2022-11-17T06:07:48.059Z,92.10
2022-11-17T06:10:14.948Z,92.00
2022-11-17T06:12:44.038Z,91.90
2022-11-17T06:15:11.007Z,91.90
2022-11-17T06:18:00.491Z,91.90
2022-11-17T06:20:33.154Z,91.90
2022-11-17T06:23:04.505Z,91.80
2022-11-17T06:25:34.944Z,91.80
2022-11-17T06:28:06.916Z,91.80
2022-11-17T06:30:35.471Z,91.80
2022-11-17T06:33:03.647Z,91.90
2022-11-17T06:35:41.514Z,91.90
2022-11-17T06:38:12.350Z,91.90
2022-11-17T06:40:44.377Z,92.00
2022-11-17T06:43:11.312Z,91.90
2022-11-17T06:45:50.178Z,92.00
2022-11-17T06:48:29.875Z,92.00
2022-11-17T06:50:59.106Z,92.00
2022-11-17T06:53:26.701Z,92.00
2022-11-17T06:56:05.367Z,92.00
2022-11-17T06:58:33.004Z,92.00
2022-11-17T07:01:05.684Z,92.10
2022-11-17T07:03:34.594Z,92.10
2022-11-17T07:06:02.758Z,92.10
2022-11-17T07:08:29.990Z,92.10
2022-11-17T07:11:02.278Z,92.10
2022-11-17T07:13:29.546Z,92.10
2022-11-17T07:16:06.109Z,92.20
2022-11-17T07:18:34.282Z,92.20
2022-11-17T07:21:03.920Z,92.20
2022-11-17T07:23:35.215Z,92.30
2022-11-17T07:26:02.623Z,92.20
2022-11-17T07:28:29.977Z,92.20
2022-11-17T07:31:03.465Z,92.10
2022-11-17T07:33:30.952Z,92.00
2022-11-17T07:36:05.994Z,92.10
2022-11-17T07:38:35.212Z,92.10
2022-11-17T07:41:06.113Z,92.10
2022-11-17T07:43:34.240Z,92.30
2022-11-17T07:46:10.696Z,92.30
2022-11-17T07:48:40.637Z,92.40
2022-11-17T07:51:10.459Z,92.50
2022-11-17T07:53:41.958Z,92.80
2022-11-17T07:56:11.140Z,92.80
2022-11-17T07:58:39.061Z,92.50
2022-11-17T08:01:09.881Z,92.20
2022-11-17T08:03:36.931Z,92.10
2022-11-17T08:06:05.060Z,92.20
2022-11-17T08:08:32.938Z,92.20
2022-11-17T08:11:08.653Z,92.30
2022-11-17T08:13:36.402Z,92.20
2022-11-17T08:16:03.926Z,92.20
2022-11-17T08:18:31.203Z,92.30
2022-11-17T08:21:05.622Z,92.20
2022-11-17T08:23:34.224Z,92.20
2022-11-17T08:26:02.548Z,92.20
2022-11-17T08:28:29.855Z,92.30
2022-11-17T08:30:56.960Z,92.30
2022-11-17T08:33:23.866Z,92.40
2022-11-17T08:35:51.104Z,92.50
2022-11-17T08:38:18.235Z,92.40
2022-11-17T08:40:45.975Z,92.30
2022-11-17T08:43:12.852Z,92.30
2022-11-17T08:45:42.455Z,92.40
2022-11-17T08:48:12.421Z,92.50
2022-11-17T08:50:39.297Z,92.50
2022-11-17T08:53:14.434Z,92.50
2022-11-17T08:55:42.265Z,92.50
2022-11-17T08:58:12.253Z,92.50
2022-11-17T09:00:40.702Z,92.40
2022-11-17T09:03:09.539Z,92.30
2022-11-17T09:05:44.423Z,92.20
2022-11-17T09:08:56.009Z,92.20
2022-11-17T09:11:11.979Z,92.20
2022-11-17T09:13:40.087Z,92.30
2022-11-17T09:16:10.708Z,92.30
2022-11-17T09:18:39.731Z,92.30
2022-11-17T09:21:13.223Z,92.40
2022-11-17T09:23:40.350Z,92.40
2022-11-17T09:26:14.581Z,92.50
2022-11-17T09:28:42.342Z,92.50
2022-11-17T09:31:12.164Z,92.60
2022-11-17T09:33:39.683Z,92.60
2022-11-17T09:36:08.143Z,92.60
2022-11-17T09:38:41.565Z,92.80
2022-11-17T09:41:35.852Z,92.90
2022-11-17T09:44:30.968Z,92.90
2022-11-17T09:47:36.815Z,93.00
2022-11-17T09:50:29.041Z,93.10
2022-11-17T09:53:07.250Z,93.30
2022-11-17T09:55:48.400Z,92.80
2022-11-17T09:58:25.235Z,92.70
2022-11-17T10:00:53.131Z,92.70
2022-11-17T10:03:28.686Z,92.70
2022-11-17T10:05:59.229Z,92.60
2022-11-17T10:08:49.911Z,92.50
2022-11-17T10:11:32.692Z,92.40
2022-11-17T10:14:11.306Z,92.20
2022-11-17T10:16:40.835Z,92.10
2022-11-17T10:19:15.748Z,92.00
2022-11-17T10:21:42.727Z,92.00
2022-11-17T10:24:29.932Z,92.00
2022-11-17T10:26:57.698Z,92.10
2022-11-17T10:29:24.758Z,92.20
2022-11-17T10:31:52.100Z,92.20
2022-11-17T10:34:42.707Z,92.20
2022-11-17T10:37:12.657Z,92.30
2022-11-17T10:39:43.343Z,92.30
2022-11-17T10:42:35.381Z,92.30
2022-11-17T10:45:08.583Z,92.20
2022-11-17T10:47:40.361Z,92.20
2022-11-17T10:50:25.717Z,92.20
2022-11-17T10:53:16.061Z,92.20
2022-11-17T10:55:43.852Z,92.30
2022-11-17T10:58:28.543Z,92.50
2022-11-17T11:00:58.632Z,92.60
2022-11-17T11:03:36.516Z,92.60
2022-11-17T11:06:27.497Z,92.50
2022-11-17T11:09:03.981Z,92.00
2022-11-17T11:11:45.892Z,91.50
2022-11-17T11:14:34.154Z,91.00
2022-11-17T11:17:10.108Z,90.60
2022-11-17T11:19:53.099Z,90.40
2022-11-17T11:22:27.932Z,90.20
2022-11-17T11:25:01.369Z,90.00
2022-11-17T11:27:47.512Z,90.00
2022-11-17T11:30:18.277Z,90.30
2022-11-17T11:32:57.235Z,90.70
2022-11-17T11:35:53.788Z,90.90
2022-11-17T11:38:40.681Z,90.90
2022-11-17T11:41:25.718Z,91.20
2022-11-17T11:44:19.213Z,91.30
2022-11-17T11:46:49.389Z,91.00
2022-11-17T11:49:40.852Z,91.00
2022-11-17T11:52:20.902Z,90.70
2022-11-17T11:54:58.915Z,90.50
2022-11-17T11:57:36.692Z,90.00
2022-11-17T12:00:18.064Z,90.10
2022-11-17T12:03:05.521Z,90.30
2022-11-17T12:05:55.267Z,90.30
2022-11-17T12:08:46.568Z,90.60
2022-11-17T12:11:45.378Z,90.40
2022-11-17T12:14:18.196Z,90.10
2022-11-17T12:16:47.283Z,88.80
2022-11-17T12:19:46.965Z,88.80
2022-11-17T12:22:34.728Z,88.90
2022-11-17T12:25:30.737Z,88.00
2022-11-17T12:27:57.987Z,88.20
2022-11-17T12:30:31.061Z,87.30
2022-11-17T12:33:04.203Z,87.30
2022-11-17T12:35:32.420Z,87.50
2022-11-17T12:38:15.283Z,85.40
2022-11-17T12:40:51.637Z,85.30
2022-11-17T12:43:26.362Z,85.50
2022-11-17T12:45:53.183Z,84.00
2022-11-17T12:48:33.482Z,83.20
2022-11-17T12:51:24.586Z,83.50
2022-11-17T12:53:51.515Z,84.20
2022-11-17T12:56:21.095Z,84.40
2022-11-17T12:59:09.491Z,83.20
2022-11-17T13:01:49.041Z,83.10
2022-11-17T13:04:20.439Z,81.90
2022-11-17T13:07:20.318Z,83.30
2022-11-17T13:09:56.878Z,83.40
2022-11-17T13:12:31.394Z,83.00
2022-11-17T13:15:08.411Z,84.30
2022-11-17T13:17:42.013Z,84.20
2022-11-17T13:20:28.376Z,84.40
2022-11-17T13:23:21.482Z,83.40
2022-11-17T13:25:52.334Z,84.00
2022-11-17T13:28:46.175Z,84.40
2022-11-17T13:31:21.524Z,85.20
2022-11-17T13:34:15.933Z,85.00
2022-11-17T13:36:53.690Z,84.80
2022-11-17T13:39:25.744Z,85.70
2022-11-17T13:41:54.986Z,84.60
2022-11-17T13:44:27.661Z,83.00
2022-11-17T13:46:56.519Z,81.80
2022-11-17T13:49:35.711Z,78.10
2022-11-17T13:52:12.823Z,75.50
2022-11-17T13:54:44.478Z,75.10
2022-11-17T13:57:22.803Z,75.30
2022-11-17T13:59:54.936Z,74.60
2022-11-17T14:02:25.888Z,75.60
2022-11-17T14:05:10.849Z,76.60
2022-11-17T14:07:39.870Z,78.30
2022-11-17T14:10:21.876Z,80.00
2022-11-17T14:12:53.069Z,81.00
2022-11-17T14:15:31.173Z,81.30
2022-11-17T14:18:00.112Z,82.00
2022-11-17T14:20:36.570Z,82.40
2022-11-17T14:23:08.873Z,82.90
2022-11-17T14:25:38.918Z,83.30
2022-11-17T14:28:16.046Z,83.70
2022-11-17T14:30:43.772Z,83.40
2022-11-17T14:33:13.581Z,82.90
2022-11-17T14:35:44.366Z,83.00
2022-11-17T14:38:15.926Z,83.00
2022-11-17T14:40:42.929Z,82.70
2022-11-17T14:43:11.956Z,82.70
2022-11-17T14:45:39.004Z,83.40
2022-11-17T14:48:06.115Z,83.20
2022-11-17T14:50:33.270Z,83.70
2022-11-17T14:53:00.149Z,83.70
2022-11-17T14:55:27.379Z,83.70
2022-11-17T14:57:56.626Z,84.10
2022-11-17T15:00:23.592Z,84.10
2022-11-17T15:02:52.522Z,84.40
2022-11-17T15:05:19.458Z,84.60
2022-11-17T15:07:48.338Z,84.20
2022-11-17T15:10:17.394Z,84.30
2022-11-17T15:12:44.190Z,84.00
2022-11-17T15:15:11.150Z,84.30
2022-11-17T15:17:38.050Z,84.30
2022-11-17T15:20:06.648Z,84.80
2022-11-17T15:22:33.504Z,85.00
2022-11-17T15:25:00.274Z,84.80
2022-11-17T15:27:27.310Z,85.00
2022-11-17T15:29:54.249Z,84.90
2022-11-17T15:32:21.353Z,84.80
2022-11-17T15:34:48.119Z,84.90
2022-11-17T15:37:14.834Z,83.80
2022-11-17T15:39:41.872Z,83.20
2022-11-17T15:42:09.309Z,83.00
2022-11-17T15:44:36.234Z,82.10
2022-11-17T15:47:03.541Z,81.70
2022-11-17T15:49:32.794Z,81.20
2022-11-17T15:51:59.604Z,81.70
2022-11-17T15:54:26.407Z,81.70
2022-11-17T15:56:53.421Z,82.30
2022-11-17T15:59:20.585Z,82.70
2022-11-17T16:01:47.822Z,83.80
2022-11-17T16:04:18.376Z,83.10
2022-11-17T16:06:46.582Z,84.00
2022-11-17T16:09:14.082Z,84.40
2022-11-17T16:11:41.607Z,84.10
2022-11-17T16:14:09.543Z,83.80
2022-11-17T16:16:39.220Z,84.30
2022-11-17T16:19:06.434Z,84.80
2022-11-17T16:21:38.484Z,85.40
2022-11-17T16:24:08.142Z,85.40
2022-11-17T16:26:36.011Z,85.90
2022-11-17T16:29:05.462Z,86.20
2022-11-17T16:31:34.796Z,86.80
2022-11-17T16:34:04.343Z,86.70
2022-11-17T16:36:36.846Z,87.30
2022-11-17T16:39:09.096Z,87.30
2022-11-17T16:41:39.242Z,87.30
2022-11-17T16:44:15.332Z,87.40
2022-11-17T16:46:47.203Z,88.30
2022-11-17T16:49:16.169Z,88.30
2022-11-17T16:51:54.533Z,88.60
2022-11-17T16:54:21.657Z,88.50
2022-11-17T16:56:50.683Z,88.90
2022-11-17T16:59:20.150Z,89.00
2022-11-17T17:01:47.563Z,89.10
2022-11-17T17:04:14.498Z,89.00
2022-11-17T17:06:43.399Z,88.90
2022-11-17T17:09:13.277Z,88.80
2022-11-17T17:11:41.079Z,88.80
2022-11-17T17:14:11.371Z,88.70
2022-11-17T17:16:39.351Z,88.40
2022-11-17T17:19:10.111Z,88.80
2022-11-17T17:21:38.306Z,88.50
2022-11-17T17:24:06.226Z,88.80
2022-11-17T17:26:35.118Z,89.10
2022-11-17T17:29:04.136Z,89.70
2022-11-17T17:31:53.247Z,90.00
2022-11-17T17:34:22.342Z,89.90
2022-11-17T17:36:52.998Z,90.20
2022-11-17T17:39:23.177Z,90.10
2022-11-17T17:41:51.889Z,90.00
2022-11-17T17:44:19.589Z,90.30
2022-11-17T17:46:49.862Z,90.40
2022-11-17T17:49:19.843Z,90.50
2022-11-17T17:51:47.186Z,90.90
2022-11-17T17:54:19.982Z,91.10
2022-11-17T17:56:47.824Z,91.10
2022-11-17T17:59:15.939Z,91.00
2022-11-17T18:01:46.260Z,91.00
2022-11-17T18:04:16.232Z,91.20
2022-11-17T18:06:47.157Z,91.40
2022-11-17T18:09:15.600Z,91.50
2022-11-17T18:11:47.878Z,91.60
2022-11-17T18:14:17.368Z,91.60
2022-11-17T18:16:44.173Z,91.70
2022-11-17T18:19:17.376Z,91.70
2022-11-17T18:21:44.396Z,91.60
2022-11-17T18:24:12.542Z,91.60
2022-11-17T18:26:40.991Z,91.60
2022-11-17T18:29:12.450Z,91.60
2022-11-17T18:31:39.826Z,91.70
2022-11-17T18:34:23.450Z,91.90
2022-11-17T18:36:52.043Z,92.00
2022-11-17T18:39:19.573Z,92.10
2022-11-17T18:41:47.031Z,92.10
2022-11-17T18:44:19.735Z,92.10
2022-11-17T18:46:49.408Z,92.10
2022-11-17T18:49:16.712Z,92.10
2022-11-17T18:51:43.854Z,92.10
2022-11-17T18:54:11.845Z,92.10
2022-11-17T18:56:39.955Z,92.10
2022-11-17T18:59:11.877Z,92.00
2022-11-17T19:01:43.412Z,92.00
2022-11-17T19:04:14.368Z,92.00
2022-11-17T19:06:41.609Z,92.00
2022-11-17T19:09:09.251Z,91.90
2022-11-17T19:11:36.233Z,91.90
2022-11-17T19:14:06.865Z,92.00
2022-11-17T19:16:42.576Z,91.90
2022-11-17T19:19:14.314Z,92.00
2022-11-17T19:21:43.882Z,92.00
2022-11-17T19:24:10.848Z,92.00
2022-11-17T19:26:37.676Z,92.00
2022-11-17T19:29:16.750Z,91.90
2022-11-17T19:31:47.014Z,91.80
2022-11-17T19:34:18.508Z,91.90
2022-11-17T19:36:45.290Z,92.00
2022-11-17T19:39:13.031Z,92.10
2022-11-17T19:41:40.490Z,92.00
2022-11-17T19:44:09.300Z,92.10
2022-11-17T19:46:37.177Z,91.90
2022-11-17T19:49:05.994Z,92.00
2022-11-17T19:51:34.603Z,92.00
2022-11-17T19:54:08.117Z,91.90
2022-11-17T19:56:36.588Z,91.90
2022-11-17T19:59:03.605Z,91.90
2022-11-17T20:01:32.006Z,92.00
2022-11-17T20:04:00.528Z,91.90
2022-11-17T20:06:35.366Z,92.00
2022-11-17T20:09:08.030Z,91.90
2022-11-17T20:11:35.870Z,91.90
2022-11-17T20:14:03.276Z,92.00
2022-11-17T20:16:33.299Z,92.00
2022-11-17T20:19:02.046Z,92.00
2022-11-17T20:21:31.839Z,92.00
2022-11-17T20:24:00.428Z,91.90
2022-11-17T20:26:29.382Z,91.80
2022-11-17T20:28:57.353Z,91.90
2022-11-17T20:31:26.212Z,91.80
2022-11-17T20:33:59.493Z,92.00
2022-11-17T20:36:30.024Z,91.90
2022-11-17T20:39:02.163Z,91.90
2022-11-17T20:41:30.225Z,91.90
2022-11-17T20:43:59.714Z,92.00
2022-11-17T20:46:29.037Z,91.90
2022-11-17T20:48:59.633Z,91.80
2022-11-17T20:51:26.909Z,91.80
2022-11-17T20:53:56.210Z,91.80
2022-11-17T20:56:22.933Z,91.90
2022-11-17T20:58:49.806Z,91.90
2022-11-17T21:01:22.690Z,91.90
2022-11-17T21:03:49.698Z,91.90
2022-11-17T21:06:17.678Z,91.90
2022-11-17T21:08:45.712Z,91.90
2022-11-17T21:11:33.927Z,91.80
2022-11-17T21:14:10.718Z,91.80
2022-11-17T21:16:40.313Z,91.80
2022-11-17T21:19:07.933Z,91.80
2022-11-17T21:21:35.718Z,91.80
2022-11-17T21:24:03.088Z,91.90
2022-11-17T21:26:32.684Z,91.90
2022-11-17T21:29:06.421Z,91.90
2022-11-17T21:31:36.235Z,91.90
2022-11-17T21:34:06.032Z,91.90
2022-11-17T21:36:36.367Z,91.90
2022-11-17T21:39:04.011Z,91.90
2022-11-17T21:41:35.191Z,92.20
2022-11-17T21:44:03.220Z,92.30
2022-11-17T21:46:33.689Z,92.40
2022-11-17T21:49:03.523Z,92.60
2022-11-17T21:51:33.735Z,92.60
2022-11-17T21:54:03.539Z,92.60
2022-11-17T21:56:31.923Z,92.60
2022-11-17T21:59:03.538Z,92.50
2022-11-17T22:01:31.663Z,92.60
2022-11-17T22:03:58.763Z,92.60
2022-11-17T22:06:26.654Z,92.70
2022-11-17T22:08:56.436Z,92.60
2022-11-17T22:11:38.602Z,92.80
2022-11-17T22:14:06.127Z,92.50
2022-11-17T22:16:33.661Z,92.50
2022-11-17T22:19:00.900Z,92.50
2022-11-17T22:21:32.808Z,92.80
2022-11-17T22:24:00.177Z,92.60
2022-11-17T22:26:31.597Z,92.60
2022-11-17T22:29:00.768Z,92.60
2022-11-17T22:31:28.453Z,92.50
2022-11-17T22:33:55.173Z,92.60
2022-11-17T22:36:21.931Z,92.50
2022-11-17T22:38:53.008Z,92.50
2022-11-17T22:41:23.762Z,92.50
2022-11-17T22:43:57.640Z,92.50
2022-11-17T22:46:26.488Z,92.50
2022-11-17T22:48:53.462Z,92.50
2022-11-17T22:51:39.776Z,92.60
2022-11-17T22:54:07.873Z,92.60
2022-11-17T22:56:35.445Z,92.70
2022-11-17T22:59:04.312Z,92.70
2022-11-17T23:01:31.491Z,92.80
2022-11-17T23:03:58.783Z,92.90
2022-11-17T23:06:27.293Z,92.90
2022-11-17T23:08:55.683Z,92.90
2022-11-17T23:11:36.471Z,92.90
2022-11-17T23:14:04.132Z,92.90
2022-11-17T23:16:32.086Z,93.00
2022-11-17T23:18:59.284Z,93.00
2022-11-17T23:21:26.725Z,93.00
2022-11-17T23:23:56.017Z,93.00
2022-11-17T23:26:23.162Z,93.00
2022-11-17T23:28:50.026Z,93.10
2022-11-17T23:31:18.027Z,93.10
2022-11-17T23:33:47.379Z,93.10
2022-11-17T23:36:16.620Z,93.10
2022-11-17T23:38:44.428Z,93.20
2022-11-17T23:41:16.577Z,93.20
2022-11-17T23:43:46.315Z,93.20
2022-11-17T23:46:20.093Z,93.20
2022-11-17T23:48:47.711Z,93.20
2022-11-17T23:51:17.032Z,93.20
2022-11-17T23:53:49.893Z,93.20
2022-11-17T23:56:24.667Z,93.20
2022-11-17T23:58:52.342Z,93.20
